sensor_id;sensor_type;location;lat;lon;timestamp;pressure;altitude;pressure_sealevel;temperature;humidity
71195;BME280;58908;51.426;7.714;2023-04-26T00:00:10;100023.19;;;1.52;100.00
71195;BME280;58908;51.426;7.714;2023-04-26T00:02:37;100027.56;;;1.50;100.00
71195;BME280;58908;51.426;7.714;2023-04-26T00:05:04;100027.56;;;1.50;100.00
71195;BME280;58908;51.426;7.714;2023-04-26T00:07:30;100025.84;;;1.48;100.00
71195;BME280;58908;51.426;7.714;2023-04-26T00:09:56;100026.69;;;1.48;100.00
71195;BME280;58908;51.426;7.714;2023-04-26T00:12:24;100035.31;;;1.52;100.00
71195;BME280;58908;51.426;7.714;2023-04-26T00:14:50;100027.56;;;1.47;100.00
71195;BME280;58908;51.426;7.714;2023-04-26T00:17:17;100032.03;;;1.41;100.00
71195;BME280;58908;51.426;7.714;2023-04-26T00:19:43;100039.88;;;1.38;100.00
71195;BME280;58908;51.426;7.714;2023-04-26T00:22:09;100037.41;;;1.30;100.00
71195;BME280;58908;51.426;7.714;2023-04-26T00:24:35;100032.28;;;1.26;100.00
71195;BME280;58908;51.426;7.714;2023-04-26T00:27:02;100034.84;;;1.27;100.00
71195;BME280;58908;51.426;7.714;2023-04-26T00:29:34;100031.31;;;1.31;100.00
71195;BME280;58908;51.426;7.714;2023-04-26T00:32:01;100027.84;;;1.31;100.00
71195;BME280;58908;51.426;7.714;2023-04-26T00:34:30;100027.97;;;1.25;100.00
71195;BME280;58908;51.426;7.714;2023-04-26T00:36:57;100024.44;;;1.27;100.00
71195;BME280;58908;51.426;7.714;2023-04-26T00:39:23;100030.38;;;1.37;100.00
71195;BME280;58908;51.426;7.714;2023-04-26T00:41:49;100023.47;;;1.33;100.00
71195;BME280;58908;51.426;7.714;2023-04-26T00:44:16;100020.09;;;1.29;100.00
71195;BME280;58908;51.426;7.714;2023-04-26T00:46:44;100022.72;;;1.26;100.00
71195;BME280;58908;51.426;7.714;2023-04-26T00:49:10;100017.53;;;1.28;100.00
71195;BME280;58908;51.426;7.714;2023-04-26T00:51:38;100020.16;;;1.25;100.00
71195;BME280;58908;51.426;7.714;2023-04-26T00:54:04;100009.78;;;1.25;100.00
71195;BME280;58908;51.426;7.714;2023-04-26T00:56:31;100016.69;;;1.24;100.00
71195;BME280;58908;51.426;7.714;2023-04-26T00:58:57;100016.75;;;1.23;100.00
71195;BME280;58908;51.426;7.714;2023-04-26T01:01:24;100020.38;;;1.13;100.00
71195;BME280;58908;51.426;7.714;2023-04-26T01:03:51;100014.31;;;1.11;100.00
71195;BME280;58908;51.426;7.714;2023-04-26T01:06:17;100003.28;;;0.97;100.00
71195;BME280;58908;51.426;7.714;2023-04-26T01:08:44;100011.19;;;0.88;100.00
71195;BME280;58908;51.426;7.714;2023-04-26T01:11:10;100016.34;;;0.92;100.00
71195;BME280;58908;51.426;7.714;2023-04-26T01:13:37;100016.38;;;0.89;100.00
71195;BME280;58908;51.426;7.714;2023-04-26T01:16:04;100010.25;;;0.93;100.00
71195;BME280;58908;51.426;7.714;2023-04-26T01:18:32;100019.00;;;0.88;100.00
71195;BME280;58908;51.426;7.714;2023-04-26T01:21:01;100018.16;;;0.87;100.00
71195;BME280;58908;51.426;7.714;2023-04-26T01:23:30;100021.63;;;0.85;100.00
71195;BME280;58908;51.426;7.714;2023-04-26T01:25:56;100018.91;;;0.94;100.00
71195;BME280;58908;51.426;7.714;2023-04-26T01:28:22;100011.13;;;0.92;100.00
71195;BME280;58908;51.426;7.714;2023-04-26T01:30:48;100017.31;;;0.85;100.00
71195;BME280;58908;51.426;7.714;2023-04-26T01:33:15;100016.50;;;0.80;100.00
71195;BME280;58908;51.426;7.714;2023-04-26T01:35:41;100019.22;;;0.71;100.00
71195;BME280;58908;51.426;7.714;2023-04-26T01:38:08;100020.22;;;0.63;100.00
71195;BME280;58908;51.426;7.714;2023-04-26T01:40:35;100021.19;;;0.56;100.00
71195;BME280;58908;51.426;7.714;2023-04-26T01:43:01;100022.94;;;0.54;100.00
71195;BME280;58908;51.426;7.714;2023-04-26T01:45:28;100024.63;;;0.58;100.00
71195;BME280;58908;51.426;7.714;2023-04-26T01:47:54;100028.00;;;0.63;100.00
71195;BME280;58908;51.426;7.714;2023-04-26T01:50:21;100033.22;;;0.61;100.00
71195;BME280;58908;51.426;7.714;2023-04-26T01:52:47;100031.47;;;0.60;100.00
71195;BME280;58908;51.426;7.714;2023-04-26T01:55:13;100031.47;;;0.62;100.00
71195;BME280;58908;51.426;7.714;2023-04-26T01:57:41;100030.63;;;0.61;100.00
71195;BME280;58908;51.426;7.714;2023-04-26T02:00:08;100025.50;;;0.55;100.00
71195;BME280;58908;51.426;7.714;2023-04-26T02:02:34;100033.13;;;0.69;100.00
71195;BME280;58908;51.426;7.714;2023-04-26T02:05:00;100027.13;;;0.65;100.00
71195;BME280;58908;51.426;7.714;2023-04-26T02:07:27;100027.09;;;0.67;100.00
71195;BME280;58908;51.426;7.714;2023-04-26T02:09:53;100034.06;;;0.62;100.00
71195;BME280;58908;51.426;7.714;2023-04-26T02:12:19;100023.69;;;0.63;100.00
71195;BME280;58908;51.426;7.714;2023-04-26T02:14:47;100021.09;;;0.63;100.00
71195;BME280;58908;51.426;7.714;2023-04-26T02:17:13;100021.16;;;0.59;100.00
71195;BME280;58908;51.426;7.714;2023-04-26T02:19:40;100024.63;;;0.56;100.00
71195;BME280;58908;51.426;7.714;2023-04-26T02:22:06;100022.88;;;0.60;100.00
71195;BME280;58908;51.426;7.714;2023-04-26T02:24:32;100024.56;;;0.61;100.00
71195;BME280;58908;51.426;7.714;2023-04-26T02:26:59;100031.47;;;0.60;100.00
71195;BME280;58908;51.426;7.714;2023-04-26T02:29:27;100023.81;;;0.53;100.00
71195;BME280;58908;51.426;7.714;2023-04-26T02:31:55;100022.91;;;0.57;100.00
71195;BME280;58908;51.426;7.714;2023-04-26T02:34:21;100023.84;;;0.51;100.00
71195;BME280;58908;51.426;7.714;2023-04-26T02:36:47;100022.13;;;0.49;100.00
71195;BME280;58908;51.426;7.714;2023-04-26T02:39:14;100026.50;;;0.45;100.00
71195;BME280;58908;51.426;7.714;2023-04-26T02:41:40;100031.69;;;0.47;100.00
71195;BME280;58908;51.426;7.714;2023-04-26T02:44:07;100031.69;;;0.45;100.00
71195;BME280;58908;51.426;7.714;2023-04-26T02:46:33;100025.72;;;0.37;100.00
71195;BME280;58908;51.426;7.714;2023-04-26T02:49:01;100024.03;;;0.36;100.00
71195;BME280;58908;51.426;7.714;2023-04-26T02:51:27;100029.19;;;0.38;100.00
71195;BME280;58908;51.426;7.714;2023-04-26T02:53:53;100023.97;;;0.41;100.00
71195;BME280;58908;51.426;7.714;2023-04-26T02:56:20;100030.13;;;0.32;100.00
71195;BME280;58908;51.426;7.714;2023-04-26T02:58:46;100023.19;;;0.33;100.00
71195;BME280;58908;51.426;7.714;2023-04-26T03:01:12;100024.94;;;0.34;100.00
71195;BME280;58908;51.426;7.714;2023-04-26T03:03:39;100017.25;;;0.25;100.00
71195;BME280;58908;51.426;7.714;2023-04-26T03:06:07;100022.41;;;0.29;100.00
71195;BME280;58908;51.426;7.714;2023-04-26T03:08:34;100024.16;;;0.26;100.00
71195;BME280;58908;51.426;7.714;2023-04-26T03:11:00;100019.03;;;0.21;100.00
71195;BME280;58908;51.426;7.714;2023-04-26T03:13:27;100016.38;;;0.26;100.00
71195;BME280;58908;51.426;7.714;2023-04-26T03:15:53;100025.94;;;0.22;100.00
71195;BME280;58908;51.426;7.714;2023-04-26T03:18:19;100025.13;;;0.17;100.00
71195;BME280;58908;51.426;7.714;2023-04-26T03:20:45;100024.22;;;0.23;100.00
71195;BME280;58908;51.426;7.714;2023-04-26T03:23:13;100023.47;;;0.12;100.00
71195;BME280;58908;51.426;7.714;2023-04-26T03:25:39;100019.16;;;0.09;100.00
71195;BME280;58908;51.426;7.714;2023-04-26T03:28:06;100010.66;;;-0.02;100.00
71195;BME280;58908;51.426;7.714;2023-04-26T03:30:32;100013.28;;;-0.08;100.00
71195;BME280;58908;51.426;7.714;2023-04-26T03:32:58;100016.84;;;-0.17;100.00
71195;BME280;58908;51.426;7.714;2023-04-26T03:35:24;100014.31;;;-0.19;100.00
71195;BME280;58908;51.426;7.714;2023-04-26T03:37:51;100013.50;;;-0.27;100.00
71195;BME280;58908;51.426;7.714;2023-04-26T03:40:18;100021.31;;;-0.31;100.00
71195;BME280;58908;51.426;7.714;2023-04-26T03:42:44;100017.09;;;-0.38;100.00
71195;BME280;58908;51.426;7.714;2023-04-26T03:45:11;100018.81;;;-0.40;100.00
71195;BME280;58908;51.426;7.714;2023-04-26T03:47:37;100013.63;;;-0.39;100.00
71195;BME280;58908;51.426;7.714;2023-04-26T03:50:03;100016.22;;;-0.37;100.00
71195;BME280;58908;51.426;7.714;2023-04-26T03:52:30;100006.69;;;-0.35;100.00
71195;BME280;58908;51.426;7.714;2023-04-26T03:54:56;100012.72;;;-0.35;100.00
71195;BME280;58908;51.426;7.714;2023-04-26T03:57:24;100015.22;;;-0.26;100.00
71195;BME280;58908;51.426;7.714;2023-04-26T03:59:50;100011.00;;;-0.33;100.00
71195;BME280;58908;51.426;7.714;2023-04-26T04:02:16;100009.25;;;-0.32;100.00
71195;BME280;58908;51.426;7.714;2023-04-26T04:04:43;100016.19;;;-0.33;100.00
71195;BME280;58908;51.426;7.714;2023-04-26T04:07:09;100016.22;;;-0.39;100.00
71195;BME280;58908;51.426;7.714;2023-04-26T04:09:35;100007.66;;;-0.47;100.00
71195;BME280;58908;51.426;7.714;2023-04-26T04:12:02;100009.47;;;-0.55;100.00
71195;BME280;58908;51.426;7.714;2023-04-26T04:14:29;100010.31;;;-0.56;100.00
71195;BME280;58908;51.426;7.714;2023-04-26T04:16:55;100008.63;;;-0.58;100.00
71195;BME280;58908;51.426;7.714;2023-04-26T04:19:23;100013.78;;;-0.57;100.00
71195;BME280;58908;51.426;7.714;2023-04-26T04:21:49;100011.16;;;-0.51;100.00
71195;BME280;58908;51.426;7.714;2023-04-26T04:24:16;100010.28;;;-0.48;100.00
71195;BME280;58908;51.426;7.714;2023-04-26T04:26:44;100013.63;;;-0.39;100.00
71195;BME280;58908;51.426;7.714;2023-04-26T04:29:10;100016.19;;;-0.36;100.00
71195;BME280;58908;51.426;7.714;2023-04-26T04:31:38;100014.47;;;-0.37;100.00
71195;BME280;58908;51.426;7.714;2023-04-26T04:34:05;100021.41;;;-0.40;100.00
71195;BME280;58908;51.426;7.714;2023-04-26T04:36:32;100022.28;;;-0.40;100.00
71195;BME280;58908;51.426;7.714;2023-04-26T04:38:59;100024.91;;;-0.44;100.00
71195;BME280;58908;51.426;7.714;2023-04-26T04:41:25;100024.03;;;-0.45;100.00
71195;BME280;58908;51.426;7.714;2023-04-26T04:43:51;100023.16;;;-0.42;100.00
71195;BME280;58908;51.426;7.714;2023-04-26T04:46:19;100028.38;;;-0.44;100.00
71195;BME280;58908;51.426;7.714;2023-04-26T04:48:47;100027.41;;;-0.35;100.00
71195;BME280;58908;51.426;7.714;2023-04-26T04:51:13;100036.94;;;-0.37;100.00
71195;BME280;58908;51.426;7.714;2023-04-26T04:53:39;100032.56;;;-0.32;100.00
71195;BME280;58908;51.426;7.714;2023-04-26T04:56:06;100034.25;;;-0.25;100.00
71195;BME280;58908;51.426;7.714;2023-04-26T04:58:32;100029.03;;;-0.24;100.00
71195;BME280;58908;51.426;7.714;2023-04-26T05:00:58;100031.59;;;-0.21;100.00
71195;BME280;58908;51.426;7.714;2023-04-26T05:03:25;100034.91;;;-0.08;100.00
71195;BME280;58908;51.426;7.714;2023-04-26T05:05:53;100033.97;;;-0.02;100.00
71195;BME280;58908;51.426;7.714;2023-04-26T05:08:19;100033.03;;;0.07;100.00
71195;BME280;58908;51.426;7.714;2023-04-26T05:10:46;100041.66;;;0.07;100.00
71195;BME280;58908;51.426;7.714;2023-04-26T05:13:12;100037.22;;;0.15;100.00
71195;BME280;58908;51.426;7.714;2023-04-26T05:15:38;100043.19;;;0.23;100.00
71195;BME280;58908;51.426;7.714;2023-04-26T05:18:04;100045.53;;;0.46;100.00
71195;BME280;58908;51.426;7.714;2023-04-26T05:20:30;100043.72;;;0.52;100.00
71195;BME280;58908;51.426;7.714;2023-04-26T05:22:58;100048.81;;;0.58;100.00
71195;BME280;58908;51.426;7.714;2023-04-26T05:25:24;100047.88;;;0.65;100.00
71195;BME280;58908;51.426;7.714;2023-04-26T05:27:51;100050.31;;;0.76;100.00
71195;BME280;58908;51.426;7.714;2023-04-26T05:30:17;100057.94;;;0.89;100.00
71195;BME280;58908;51.426;7.714;2023-04-26T05:32:43;100053.38;;;1.05;100.00
71195;BME280;58908;51.426;7.714;2023-04-26T05:35:09;100056.63;;;1.19;100.00
71195;BME280;58908;51.426;7.714;2023-04-26T05:37:36;100059.97;;;1.25;100.00
71195;BME280;58908;51.426;7.714;2023-04-26T05:40:06;100059.72;;;1.42;100.00
71195;BME280;58908;51.426;7.714;2023-04-26T05:42:32;100063.75;;;1.62;100.00
71195;BME280;58908;51.426;7.714;2023-04-26T05:44:59;100055.81;;;1.70;100.00
71195;BME280;58908;51.426;7.714;2023-04-26T05:47:25;100061.63;;;1.82;100.00
71195;BME280;58908;51.426;7.714;2023-04-26T05:49:51;100063.03;;;2.01;100.00
71195;BME280;58908;51.426;7.714;2023-04-26T05:52:17;100058.31;;;2.23;100.00
71195;BME280;58908;51.426;7.714;2023-04-26T05:54:44;100059.72;;;2.37;100.00
71195;BME280;58908;51.426;7.714;2023-04-26T05:57:11;100059.28;;;2.59;100.00
71195;BME280;58908;51.426;7.714;2023-04-26T05:59:38;100060.72;;;2.74;100.00
71195;BME280;58908;51.426;7.714;2023-04-26T06:02:05;100062.16;;;2.87;100.00
71195;BME280;58908;51.426;7.714;2023-04-26T06:04:31;100060.03;;;3.04;100.00
71195;BME280;58908;51.426;7.714;2023-04-26T06:06:58;100078.78;;;3.19;100.00
71195;BME280;58908;51.426;7.714;2023-04-26T06:09:24;100074.16;;;3.33;100.00
71195;BME280;58908;51.426;7.714;2023-04-26T06:11:51;100075.47;;;3.51;100.00
71195;BME280;58908;51.426;7.714;2023-04-26T06:14:18;100073.97;;;3.76;100.00
71195;BME280;58908;51.426;7.714;2023-04-26T06:16:45;100077.78;;;3.96;100.00
71195;BME280;58908;51.426;7.714;2023-04-26T06:19:11;100075.63;;;4.44;100.00
71195;BME280;58908;51.426;7.714;2023-04-26T06:21:37;100070.63;;;5.78;100.00
71195;BME280;58908;51.426;7.714;2023-04-26T06:24:04;100066.06;;;7.48;100.00
71195;BME280;58908;51.426;7.714;2023-04-26T06:26:30;100056.16;;;8.17;100.00
71195;BME280;58908;51.426;7.714;2023-04-26T06:28:56;100057.63;;;7.83;99.73
71195;BME280;58908;51.426;7.714;2023-04-26T06:31:24;100058.78;;;8.17;96.55
71195;BME280;58908;51.426;7.714;2023-04-26T06:33:50;100054.25;;;7.59;95.29
71195;BME280;58908;51.426;7.714;2023-04-26T06:36:17;100060.06;;;7.87;95.16
71195;BME280;58908;51.426;7.714;2023-04-26T06:38:43;100052.16;;;9.43;89.56
71195;BME280;58908;51.426;7.714;2023-04-26T06:41:09;100049.13;;;9.33;87.73
71195;BME280;58908;51.426;7.714;2023-04-26T06:43:36;100049.41;;;9.62;82.21
71195;BME280;58908;51.426;7.714;2023-04-26T06:46:02;100042.34;;;9.98;82.40
71195;BME280;58908;51.426;7.714;2023-04-26T06:48:30;100048.78;;;10.76;78.47
71195;BME280;58908;51.426;7.714;2023-04-26T06:50:56;100041.34;;;10.18;76.30
71195;BME280;58908;51.426;7.714;2023-04-26T06:53:22;100040.66;;;10.96;75.06
71195;BME280;58908;51.426;7.714;2023-04-26T06:55:48;100046.69;;;10.50;74.39
71195;BME280;58908;51.426;7.714;2023-04-26T06:58:16;100048.78;;;11.55;72.38
71195;BME280;58908;51.426;7.714;2023-04-26T07:00:43;100046.31;;;11.37;69.91
71195;BME280;58908;51.426;7.714;2023-04-26T07:03:09;100049.75;;;12.28;68.81
71195;BME280;58908;51.426;7.714;2023-04-26T07:05:37;100050.13;;;11.16;69.15
71195;BME280;58908;51.426;7.714;2023-04-26T07:08:04;100049.94;;;12.97;66.97
71195;BME280;58908;51.426;7.714;2023-04-26T07:10:30;100045.13;;;11.42;66.44
71195;BME280;58908;51.426;7.714;2023-04-26T07:12:56;100059.72;;;10.19;71.10
71195;BME280;58908;51.426;7.714;2023-04-26T07:15:23;100056.53;;;11.12;69.66
71195;BME280;58908;51.426;7.714;2023-04-26T07:17:49;100053.78;;;9.08;71.43
71195;BME280;58908;51.426;7.714;2023-04-26T07:20:15;100051.72;;;10.38;74.98
71195;BME280;58908;51.426;7.714;2023-04-26T07:22:45;100043.38;;;11.88;71.12
71195;BME280;58908;51.426;7.714;2023-04-26T07:25:12;100045.38;;;11.69;66.77
71195;BME280;58908;51.426;7.714;2023-04-26T07:27:38;100051.91;;;10.35;69.61
71195;BME280;58908;51.426;7.714;2023-04-26T07:30:05;100044.03;;;9.47;73.53
71195;BME280;58908;51.426;7.714;2023-04-26T07:32:31;100062.31;;;8.76;78.62
71195;BME280;58908;51.426;7.714;2023-04-26T07:34:58;100057.03;;;8.18;79.23
71195;BME280;58908;51.426;7.714;2023-04-26T07:37:24;100059.78;;;8.55;79.35
71195;BME280;58908;51.426;7.714;2023-04-26T07:39:52;100054.63;;;10.16;73.66
71195;BME280;58908;51.426;7.714;2023-04-26T07:42:18;100050.25;;;9.98;71.56
71195;BME280;58908;51.426;7.714;2023-04-26T07:44:46;100053.66;;;9.30;72.09
71195;BME280;58908;51.426;7.714;2023-04-26T07:47:12;100057.75;;;7.80;75.57
71195;BME280;58908;51.426;7.714;2023-04-26T07:49:39;100063.28;;;7.74;76.40
71195;BME280;58908;51.426;7.714;2023-04-26T07:52:07;100065.72;;;7.57;80.59
71195;BME280;58908;51.426;7.714;2023-04-26T07:54:33;100069.88;;;7.84;83.76
71195;BME280;58908;51.426;7.714;2023-04-26T07:57:01;100072.16;;;7.70;81.64
71195;BME280;58908;51.426;7.714;2023-04-26T07:59:27;100058.72;;;7.77;82.47
71195;BME280;58908;51.426;7.714;2023-04-26T08:01:53;100051.66;;;7.79;79.19
71195;BME280;58908;51.426;7.714;2023-04-26T08:04:28;100051.81;;;7.96;79.07
71195;BME280;58908;51.426;7.714;2023-04-26T08:06:56;100052.34;;;8.04;78.28
71195;BME280;58908;51.426;7.714;2023-04-26T08:09:22;100053.28;;;7.82;78.37
71195;BME280;58908;51.426;7.714;2023-04-26T08:11:48;100059.84;;;7.50;78.14
71195;BME280;58908;51.426;7.714;2023-04-26T08:14:16;100059.19;;;7.45;79.46
71195;BME280;58908;51.426;7.714;2023-04-26T08:16:43;100054.50;;;7.95;77.06
71195;BME280;58908;51.426;7.714;2023-04-26T08:19:09;100061.47;;;7.74;80.31
71195;BME280;58908;51.426;7.714;2023-04-26T08:21:36;100057.50;;;7.44;80.22
71195;BME280;58908;51.426;7.714;2023-04-26T08:24:02;100058.53;;;7.62;80.95
71195;BME280;58908;51.426;7.714;2023-04-26T08:26:28;100064.38;;;7.68;80.92
71195;BME280;58908;51.426;7.714;2023-04-26T08:28:55;100056.88;;;8.01;78.80
71195;BME280;58908;51.426;7.714;2023-04-26T08:31:22;100048.47;;;8.91;75.17
71195;BME280;58908;51.426;7.714;2023-04-26T08:33:49;100035.84;;;9.35;71.59
71195;BME280;58908;51.426;7.714;2023-04-26T08:36:15;100033.53;;;10.16;67.83
71195;BME280;58908;51.426;7.714;2023-04-26T08:38:41;100037.03;;;9.64;66.83
71195;BME280;58908;51.426;7.714;2023-04-26T08:41:08;100034.78;;;9.57;66.13
71195;BME280;58908;51.426;7.714;2023-04-26T08:43:38;100036.88;;;8.77;66.43
71195;BME280;58908;51.426;7.714;2023-04-26T08:46:05;100035.19;;;8.16;68.94
71195;BME280;58908;51.426;7.714;2023-04-26T08:48:33;100050.66;;;7.82;71.80
71195;BME280;58908;51.426;7.714;2023-04-26T08:51:01;100046.22;;;7.62;72.93
71195;BME280;58908;51.426;7.714;2023-04-26T08:53:28;100044.06;;;7.72;75.68
71195;BME280;58908;51.426;7.714;2023-04-26T08:55:55;100046.81;;;7.90;75.59
71195;BME280;58908;51.426;7.714;2023-04-26T08:58:21;100049.56;;;8.07;74.08
71195;BME280;58908;51.426;7.714;2023-04-26T09:00:48;100053.81;;;8.51;72.85
71195;BME280;58908;51.426;7.714;2023-04-26T09:03:15;100036.69;;;9.53;68.43
71195;BME280;58908;51.426;7.714;2023-04-26T09:05:43;100041.09;;;9.53;66.65
71195;BME280;58908;51.426;7.714;2023-04-26T09:08:11;100043.22;;;10.16;65.54
71195;BME280;58908;51.426;7.714;2023-04-26T09:10:40;100038.81;;;9.98;63.74
71195;BME280;58908;51.426;7.714;2023-04-26T09:13:06;100037.41;;;9.38;66.29
71195;BME280;58908;51.426;7.714;2023-04-26T09:15:33;100044.06;;;9.29;67.56
71195;BME280;58908;51.426;7.714;2023-04-26T09:18:14;100050.72;;;8.62;66.80
71195;BME280;58908;51.426;7.714;2023-04-26T09:20:42;100054.09;;;8.45;69.98
71195;BME280;58908;51.426;7.714;2023-04-26T09:23:08;100052.75;;;8.15;67.77
71195;BME280;58908;51.426;7.714;2023-04-26T09:25:36;100057.56;;;8.26;68.37
71195;BME280;58908;51.426;7.714;2023-04-26T09:28:02;100053.00;;;8.69;69.27
71195;BME280;58908;51.426;7.714;2023-04-26T09:30:29;100040.28;;;10.87;65.04
71195;BME280;58908;51.426;7.714;2023-04-26T09:32:56;100037.19;;;12.32;59.22
71195;BME280;58908;51.426;7.714;2023-04-26T09:35:27;100026.19;;;10.55;59.62
71195;BME280;58908;51.426;7.714;2023-04-26T09:37:55;100040.94;;;10.42;61.78
71195;BME280;58908;51.426;7.714;2023-04-26T09:40:23;100036.50;;;9.92;62.64
71195;BME280;58908;51.426;7.714;2023-04-26T09:43:02;100038.50;;;9.16;64.53
71195;BME280;58908;51.426;7.714;2023-04-26T09:45:29;100043.63;;;9.01;64.26
71195;BME280;58908;51.426;7.714;2023-04-26T09:48:06;100043.25;;;8.33;62.29
71195;BME280;58908;51.426;7.714;2023-04-26T09:50:37;100044.91;;;8.35;63.63
71195;BME280;58908;51.426;7.714;2023-04-26T09:53:04;100041.59;;;8.30;63.96
71195;BME280;58908;51.426;7.714;2023-04-26T09:55:31;100048.50;;;8.53;62.99
71195;BME280;58908;51.426;7.714;2023-04-26T09:57:57;100041.84;;;8.83;62.17
71195;BME280;58908;51.426;7.714;2023-04-26T10:00:24;100037.88;;;10.17;61.95
71195;BME280;58908;51.426;7.714;2023-04-26T10:02:51;100041.91;;;9.18;60.76
71195;BME280;58908;51.426;7.714;2023-04-26T10:05:19;100044.06;;;8.53;60.45
71195;BME280;58908;51.426;7.714;2023-04-26T10:07:46;100045.38;;;8.63;62.03
71195;BME280;58908;51.426;7.714;2023-04-26T10:10:13;100035.75;;;8.24;61.69
71195;BME280;58908;51.426;7.714;2023-04-26T10:12:40;100040.06;;;7.85;62.98
71195;BME280;58908;51.426;7.714;2023-04-26T10:15:07;100043.47;;;7.87;64.32
71195;BME280;58908;51.426;7.714;2023-04-26T10:17:34;100035.31;;;7.93;65.00
71195;BME280;58908;51.426;7.714;2023-04-26T10:20:00;100037.66;;;8.20;65.91
71195;BME280;58908;51.426;7.714;2023-04-26T10:22:31;100039.31;;;8.43;64.41
71195;BME280;58908;51.426;7.714;2023-04-26T10:24:59;100028.22;;;8.15;63.97
71195;BME280;58908;51.426;7.714;2023-04-26T10:30:08;100031.41;;;8.23;66.61
71195;BME280;58908;51.426;7.714;2023-04-26T10:35:26;100013.03;;;9.35;61.83
71195;BME280;58908;51.426;7.714;2023-04-26T10:38:08;100007.00;;;9.15;61.13
71195;BME280;58908;51.426;7.714;2023-04-26T10:40:35;100013.69;;;9.22;60.84
71195;BME280;58908;51.426;7.714;2023-04-26T10:45:48;100010.19;;;9.40;60.27
71195;BME280;58908;51.426;7.714;2023-04-26T10:48:15;100007.78;;;10.04;61.52
71195;BME280;58908;51.426;7.714;2023-04-26T10:53:25;100014.19;;;8.93;61.45
71195;BME280;58908;51.426;7.714;2023-04-26T10:55:52;100013.00;;;8.81;63.50
71195;BME280;58908;51.426;7.714;2023-04-26T10:58:24;100012.94;;;9.01;63.88
71195;BME280;58908;51.426;7.714;2023-04-26T11:01:03;100011.06;;;8.85;62.58
71195;BME280;58908;51.426;7.714;2023-04-26T11:03:30;100004.25;;;9.18;62.52
71195;BME280;58908;51.426;7.714;2023-04-26T11:05:57;100013.00;;;8.43;64.01
71195;BME280;58908;51.426;7.714;2023-04-26T11:08:24;100008.91;;;8.74;61.64
71195;BME280;58908;51.426;7.714;2023-04-26T11:10:55;100007.34;;;9.07;62.16
71195;BME280;58908;51.426;7.714;2023-04-26T11:13:22;100008.31;;;8.88;60.18
71195;BME280;58908;51.426;7.714;2023-04-26T11:15:51;100015.69;;;8.80;60.70
71195;BME280;58908;51.426;7.714;2023-04-26T11:18:19;100014.97;;;9.32;62.29
71195;BME280;58908;51.426;7.714;2023-04-26T11:20:45;100009.44;;;9.01;60.71
71195;BME280;58908;51.426;7.714;2023-04-26T11:23:12;100013.97;;;8.97;60.79
71195;BME280;58908;51.426;7.714;2023-04-26T11:25:38;100013.50;;;9.43;63.28
71195;BME280;58908;51.426;7.714;2023-04-26T11:28:05;100003.72;;;9.63;63.36
71195;BME280;58908;51.426;7.714;2023-04-26T11:30:31;100004.59;;;9.81;61.90
71195;BME280;58908;51.426;7.714;2023-04-26T11:32:58;100006.34;;;9.63;61.64
71195;BME280;58908;51.426;7.714;2023-04-26T11:35:26;100007.00;;;10.19;61.38
71195;BME280;58908;51.426;7.714;2023-04-26T11:37:56;100005.22;;;10.20;59.83
71195;BME280;58908;51.426;7.714;2023-04-26T11:40:22;100009.72;;;10.01;62.07
71195;BME280;58908;51.426;7.714;2023-04-26T11:42:52;100000.28;;;10.14;59.99
71195;BME280;58908;51.426;7.714;2023-04-26T11:45:18;100007.59;;;9.90;60.35
71195;BME280;58908;51.426;7.714;2023-04-26T11:47:44;100009.59;;;8.98;58.16
71195;BME280;58908;51.426;7.714;2023-04-26T11:50:11;100008.16;;;8.72;60.49
71195;BME280;58908;51.426;7.714;2023-04-26T11:52:39;100017.00;;;8.51;60.30
71195;BME280;58908;51.426;7.714;2023-04-26T11:55:06;100008.94;;;8.93;60.88
71195;BME280;58908;51.426;7.714;2023-04-26T11:57:32;100003.50;;;9.33;61.35
71195;BME280;58908;51.426;7.714;2023-04-26T12:00:09;100000.47;;;9.92;59.95
71195;BME280;58908;51.426;7.714;2023-04-26T12:02:36;100000.16;;;10.15;58.78
71195;BME280;58908;51.426;7.714;2023-04-26T12:05:02;99993.88;;;10.35;58.67
71195;BME280;58908;51.426;7.714;2023-04-26T12:07:31;100000.75;;;9.69;56.19
71195;BME280;58908;51.426;7.714;2023-04-26T12:09:59;99993.97;;;9.99;56.94
71195;BME280;58908;51.426;7.714;2023-04-26T12:12:33;99996.84;;;9.78;56.49
71195;BME280;58908;51.426;7.714;2023-04-26T12:14:59;99995.16;;;9.58;55.16
71195;BME280;58908;51.426;7.714;2023-04-26T12:17:26;100000.81;;;9.51;55.72
71195;BME280;58908;51.426;7.714;2023-04-26T12:19:53;99987.06;;;9.97;58.14
71195;BME280;58908;51.426;7.714;2023-04-26T12:22:20;99998.97;;;9.18;57.64
71195;BME280;58908;51.426;7.714;2023-04-26T12:24:46;99993.03;;;9.66;59.03
71195;BME280;58908;51.426;7.714;2023-04-26T12:27:19;100006.22;;;8.94;60.22
71195;BME280;58908;51.426;7.714;2023-04-26T12:29:46;100005.28;;;8.58;59.98
71195;BME280;58908;51.426;7.714;2023-04-26T12:32:12;100011.69;;;8.53;61.27
71195;BME280;58908;51.426;7.714;2023-04-26T12:34:38;100011.19;;;8.63;62.26
71195;BME280;58908;51.426;7.714;2023-04-26T12:37:04;100014.97;;;8.76;62.08
71195;BME280;58908;51.426;7.714;2023-04-26T12:39:32;100012.97;;;9.18;63.69
71195;BME280;58908;51.426;7.714;2023-04-26T12:41:58;100015.53;;;9.55;61.36
71195;BME280;58908;51.426;7.714;2023-04-26T12:44:25;100024.84;;;9.08;59.81
71195;BME280;58908;51.426;7.714;2023-04-26T12:46:52;100013.72;;;9.03;60.75
71195;BME280;58908;51.426;7.714;2023-04-26T12:49:18;100017.41;;;9.18;62.02
71195;BME280;58908;51.426;7.714;2023-04-26T12:51:45;100013.13;;;8.97;61.46
71195;BME280;58908;51.426;7.714;2023-04-26T12:54:11;100011.63;;;9.10;61.78
71195;BME280;58908;51.426;7.714;2023-04-26T12:56:37;100000.91;;;9.66;61.51
71195;BME280;58908;51.426;7.714;2023-04-26T12:59:07;100012.25;;;9.85;62.15
71195;BME280;58908;51.426;7.714;2023-04-26T13:01:35;100007.13;;;9.30;62.47